Time;durP1;ratioP1;P1;durP2;ratioP2;P2;SDS_P1;SDS_P2;PMS_P1;PMS_P2;Temp;Humidity;BMP_temperature;BMP_pressure;BME280_temperature;BME280_humidity;BME280_pressure;Samples;Min_cycle;Max_cycle;Signal;HPM_P1;HPM_P2
2023/05/21 00:00:50;;;;;;;7.05;4.15;;;;;;;12.65;71.99;101759.72;6108653;23;20016;-79
2023/05/21 00:03:16;;;;;;;6.07;4.20;;;;;;;12.62;72.70;101761.50;6109384;23;20443;-78
2023/05/21 00:05:43;;;;;;;6.28;4.25;;;;;;;12.60;72.25;101766.78;6132895;23;20001;-78
2023/05/21 00:08:09;;;;;;;6.38;4.25;;;;;;;12.54;72.71;101755.41;6158007;23;20012;-79
2023/05/21 00:10:35;;;;;;;9.13;4.45;;;;;;;12.56;72.83;101754.53;6132112;23;20013;-78
2023/05/21 00:13:00;;;;;;;6.93;4.47;;;;;;;12.55;72.54;101760.66;6108199;23;20328;-78
2023/05/21 00:15:25;;;;;;;7.55;4.50;;;;;;;12.53;73.13;101758.91;6132798;23;20376;-78
2023/05/21 00:17:51;;;;;;;7.78;3.88;;;;;;;12.53;73.19;101748.41;6133010;23;20446;-79
2023/05/21 00:20:17;;;;;;;6.68;4.72;;;;;;;12.50;73.00;101758.94;6108426;23;20032;-80
2023/05/21 00:22:42;;;;;;;5.50;4.53;;;;;;;12.46;73.38;101753.69;6133128;23;20048;-78
2023/05/21 00:25:09;;;;;;;6.05;4.50;;;;;;;12.44;73.98;101747.59;6109567;23;20400;-77
2023/05/21 00:27:34;;;;;;;6.78;4.60;;;;;;;12.43;73.22;101745.84;6109941;23;20013;-78
2023/05/21 00:30:00;;;;;;;6.88;4.63;;;;;;;12.42;73.68;101745.84;6134549;23;20005;-78
2023/05/21 00:32:25;;;;;;;7.03;5.18;;;;;;;12.35;74.20;101744.13;6134444;23;20009;-78
2023/05/21 00:34:51;;;;;;;6.88;4.30;;;;;;;12.39;73.69;101744.09;6134216;23;20431;-78
2023/05/21 00:37:16;;;;;;;7.03;4.60;;;;;;;12.38;74.51;101741.47;6134359;23;20092;-78
2023/05/21 00:39:42;;;;;;;6.95;5.90;;;;;;;12.29;74.62;101739.78;6133496;23;20009;-78
2023/05/21 00:42:07;;;;;;;8.70;5.15;;;;;;;12.25;74.70;101740.66;6134373;23;20009;-78
2023/05/21 00:44:34;;;;;;;7.57;5.13;;;;;;;12.18;74.95;101741.56;6158449;23;20001;-77
2023/05/21 00:47:03;;;;;;;9.35;5.60;;;;;;;12.17;74.88;101737.19;6110479;23;20087;-78
2023/05/21 00:49:30;;;;;;;8.27;5.00;;;;;;;12.17;75.25;101734.56;6158905;23;20008;-78
2023/05/21 00:51:56;;;;;;;6.05;4.85;;;;;;;12.15;74.98;101726.69;6133992;23;20012;-79
2023/05/21 00:54:22;;;;;;;6.57;5.18;;;;;;;12.17;75.35;101727.56;6133231;23;20017;-77
2023/05/21 00:56:48;;;;;;;7.75;5.63;;;;;;;12.18;74.80;101729.28;6134413;23;20013;-78
2023/05/21 00:59:17;;;;;;;7.85;5.72;;;;;;;12.15;75.81;101725.81;6134079;23;20507;-78
2023/05/21 01:01:44;;;;;;;8.52;5.88;;;;;;;12.10;76.17;101728.47;6158838;23;20086;-79
2023/05/21 01:04:10;;;;;;;8.07;5.63;;;;;;;12.07;76.65;101731.97;6134688;23;20020;-78
2023/05/21 01:06:36;;;;;;;9.50;5.47;;;;;;;12.06;76.29;101724.97;6158532;23;20005;-78
2023/05/21 01:09:05;;;;;;;7.97;5.97;;;;;;;11.97;77.61;101730.28;6133958;23;20101;-77
2023/05/21 01:11:45;;;;;;;9.07;5.70;;;;;;;11.91;76.71;101724.97;6134226;23;20008;-78
2023/05/21 01:14:12;;;;;;;;;;;;;;;12.00;75.05;101726.75;6185570;23;20005;-78
2023/05/21 01:16:39;;;;;;;7.80;6.38;;;;;;;11.77;77.82;101725.91;6158760;23;20322;-77
2023/05/21 01:19:08;;;;;;;8.20;6.00;;;;;;;11.71;78.27;101730.28;6134561;23;20008;-77
2023/05/21 01:21:40;;;;;;;11.20;5.90;;;;;;;11.68;78.17;101722.41;6134449;23;20119;-77
2023/05/21 01:24:06;;;;;;;8.75;5.65;;;;;;;11.62;78.44;101720.69;6158286;23;20308;-78
2023/05/21 01:26:37;;;;;;;7.50;5.80;;;;;;;11.57;78.58;101720.69;6157976;23;20446;-77
2023/05/21 01:29:05;;;;;;;8.80;6.00;;;;;;;11.53;79.66;101720.72;6111625;23;20427;-78
2023/05/21 01:32:15;;;;;;;8.73;6.13;;;;;;;11.57;78.00;101720.69;6134142;23;20088;-77
2023/05/21 01:34:54;;;;;;;8.85;6.38;;;;;;;11.51;79.14;101719.84;6120175;23;20080;-77
2023/05/21 01:37:28;;;;;;;8.98;5.55;;;;;;;11.52;79.32;101719.84;6158000;23;20001;-77
2023/05/21 01:40:04;;;;;;;7.40;6.07;;;;;;;11.48;79.92;101712.84;6157373;23;20005;-78
2023/05/21 01:42:33;;;;;;;7.25;5.95;;;;;;;11.46;80.15;101713.72;6157666;23;20023;-77
2023/05/21 01:45:01;;;;;;;6.68;5.90;;;;;;;11.49;79.85;101714.56;6158541;23;20426;-76
2023/05/21 01:47:30;;;;;;;8.00;5.32;;;;;;;11.48;80.24;101717.19;6157914;23;20408;-78
2023/05/21 01:49:55;;;;;;;8.57;5.50;;;;;;;11.49;79.87;101709.31;6158218;23;20100;-79
2023/05/21 01:52:21;;;;;;;7.43;5.55;;;;;;;11.48;79.71;101712.84;6133392;23;20392;-77
2023/05/21 01:54:48;;;;;;;6.15;5.35;;;;;;;11.49;79.92;101711.94;6132915;23;20514;-78
2023/05/21 01:57:15;;;;;;;8.15;5.25;;;;;;;11.48;80.28;101712.84;6134064;23;20116;-78
2023/05/21 01:59:43;;;;;;;6.05;4.85;;;;;;;11.48;81.06;101709.34;6109751;23;20380;-77
2023/05/21 02:02:08;;;;;;;8.35;5.82;;;;;;;11.48;81.20;101706.72;6108364;23;20472;-78
2023/05/21 02:04:34;;;;;;;7.25;5.45;;;;;;;11.52;80.44;101704.09;6133820;23;20033;-78
2023/05/21 02:06:59;;;;;;;9.05;5.88;;;;;;;11.54;80.69;101701.47;6109182;23;20005;-78
2023/05/21 02:09:25;;;;;;;7.53;5.68;;;;;;;11.59;81.21;101703.22;6132883;23;20019;-78
2023/05/21 02:11:50;;;;;;;8.02;5.13;;;;;;;11.64;80.95;101702.28;6132831;23;20087;-78
2023/05/21 02:14:15;;;;;;;7.25;5.82;;;;;;;11.68;80.87;101694.44;6133044;23;20486;-77
2023/05/21 02:16:41;;;;;;;8.27;5.53;;;;;;;11.71;81.34;101699.66;6109465;23;20009;-78
2023/05/21 02:19:09;;;;;;;6.45;5.35;;;;;;;11.74;80.90;101693.53;6134264;23;20029;-78
2023/05/21 02:21:34;;;;;;;6.75;5.68;;;;;;;11.78;81.43;101700.53;6109917;23;20008;-79
2023/05/21 02:24:00;;;;;;;7.40;5.18;;;;;;;11.82;81.48;101706.63;6133359;23;20009;-79
2023/05/21 02:26:26;;;;;;;6.68;4.85;;;;;;;11.84;81.34;101707.50;6133115;23;20434;-78
2023/05/21 02:28:52;;;;;;;6.70;5.60;;;;;;;11.88;81.60;101701.34;6109440;23;20005;-78
2023/05/21 02:31:18;;;;;;;6.55;5.53;;;;;;;11.93;81.32;101700.50;6133053;23;20020;-77
2023/05/21 02:33:43;;;;;;;9.88;5.82;;;;;;;11.97;80.91;101696.13;6133304;23;20013;-79
2023/05/21 02:36:11;;;;;;;7.85;5.95;;;;;;;12.00;80.82;101700.50;6132854;23;20092;-77
2023/05/21 02:38:42;;;;;;;7.13;5.57;;;;;;;12.01;81.12;101702.22;6133742;23;20087;-77
2023/05/21 02:41:09;;;;;;;6.95;5.18;;;;;;;12.04;81.29;101700.47;6133515;23;20506;-77
2023/05/21 02:43:35;;;;;;;8.13;5.68;;;;;;;12.07;81.04;101699.59;6108921;23;20071;-77
2023/05/21 02:46:00;;;;;;;7.28;5.68;;;;;;;12.08;80.78;101699.59;6132547;23;20382;-77
2023/05/21 02:48:25;;;;;;;9.25;5.47;;;;;;;12.12;80.33;101700.44;6133265;23;20009;-78
2023/05/21 02:50:51;;;;;;;7.43;5.32;;;;;;;12.09;81.10;101698.69;6108240;23;20091;-78
2023/05/21 02:53:16;;;;;;;10.30;5.82;;;;;;;12.11;80.92;101694.31;6108431;23;20025;-78
2023/05/21 02:55:42;;;;;;;7.38;5.28;;;;;;;12.12;80.49;101692.53;6108367;23;20024;-80
2023/05/21 02:58:07;;;;;;;6.63;5.35;;;;;;;12.17;80.15;101688.16;6109000;23;20100;-78
2023/05/21 03:00:32;;;;;;;8.77;5.53;;;;;;;12.16;80.06;101693.41;6133160;23;20120;-79
2023/05/21 03:02:58;;;;;;;6.57;5.88;;;;;;;12.11;80.79;101681.16;6107858;23;20040;-78
2023/05/21 03:05:23;;;;;;;9.65;6.25;;;;;;;12.11;80.68;101685.53;6133185;23;20001;-77
2023/05/21 03:07:49;;;;;;;7.35;5.65;;;;;;;12.09;80.88;101682.06;6132747;23;20013;-80
2023/05/21 03:10:15;;;;;;;11.05;6.05;;;;;;;12.11;80.88;101675.03;6132154;23;20495;-77
2023/05/21 03:12:40;;;;;;;9.10;5.60;;;;;;;12.08;80.94;101681.19;6158041;23;20414;-79
2023/05/21 03:15:06;;;;;;;7.75;6.35;;;;;;;12.08;80.69;101675.94;6108665;23;20178;-78
2023/05/21 03:17:32;;;;;;;8.60;6.38;;;;;;;12.06;81.43;101680.31;6133416;23;20016;-79
2023/05/21 03:19:57;;;;;;;7.78;5.40;;;;;;;12.07;80.94;101673.31;6132963;23;20013;-77
2023/05/21 03:22:22;;;;;;;9.90;6.28;;;;;;;12.04;81.42;101674.19;6108310;23;20009;-78
2023/05/21 03:24:48;;;;;;;8.43;5.80;;;;;;;12.05;81.36;101675.06;6107810;23;20074;-79
2023/05/21 03:27:13;;;;;;;9.48;6.10;;;;;;;12.01;82.01;101666.34;6109080;23;20487;-79
2023/05/21 03:29:39;;;;;;;10.07;6.13;;;;;;;12.04;81.60;101665.41;6108713;23;20428;-78
2023/05/21 03:32:05;;;;;;;7.35;6.03;;;;;;;12.03;81.47;101664.56;6133299;23;20017;-78
2023/05/21 03:34:33;;;;;;;7.78;5.97;;;;;;;12.03;81.53;101668.94;6132711;23;20016;-78
2023/05/21 03:36:58;;;;;;;8.82;5.25;;;;;;;12.01;80.89;101674.22;6157344;23;20446;-79
2023/05/21 03:39:26;;;;;;;8.48;6.35;;;;;;;11.96;82.04;101662.84;6108203;23;20009;-80
2023/05/21 03:41:51;;;;;;;10.02;5.90;;;;;;;11.97;82.06;101667.22;6133117;23;20032;-79
2023/05/21 03:44:16;;;;;;;8.45;6.18;;;;;;;11.95;82.09;101666.34;6108517;23;20088;-79
2023/05/21 03:46:44;;;;;;;7.28;6.03;;;;;;;11.95;81.75;101669.88;6157684;23;20342;-79
2023/05/21 03:49:09;;;;;;;7.13;5.75;;;;;;;11.94;81.61;101675.13;6108355;23;20009;-80
2023/05/21 03:51:37;;;;;;;8.75;6.88;;;;;;;11.91;81.69;101664.56;6107763;23;20469;-79
2023/05/21 03:54:02;;;;;;;6.95;6.03;;;;;;;11.93;81.76;101668.09;6132507;23;20044;-79
2023/05/21 03:56:28;;;;;;;10.18;6.85;;;;;;;11.91;82.42;101664.56;6156902;23;20036;-79
2023/05/21 03:58:53;;;;;;;8.13;6.20;;;;;;;11.90;82.51;101676.84;6110074;23;20013;-78
2023/05/21 04:01:19;;;;;;;7.18;5.95;;;;;;;11.91;82.43;101669.81;6110283;23;20029;-79
2023/05/21 04:03:44;;;;;;;7.55;6.05;;;;;;;11.89;82.56;101672.47;6110763;23;20013;-78
2023/05/21 04:06:10;;;;;;;8.48;6.20;;;;;;;11.88;82.60;101676.00;6154756;23;20013;-77
2023/05/21 04:08:36;;;;;;;10.52;6.28;;;;;;;11.87;82.82;101668.13;6133726;23;20095;-78
2023/05/21 04:11:02;;;;;;;8.55;6.13;;;;;;;11.85;82.92;101670.75;6110513;23;20013;-79
2023/05/21 04:13:27;;;;;;;9.18;6.45;;;;;;;11.87;82.57;101668.13;6134654;23;20359;-78
2023/05/21 04:15:53;;;;;;;9.60;6.55;;;;;;;11.85;83.58;101659.34;6109055;23;20004;-78
2023/05/21 04:18:22;;;;;;;9.52;6.35;;;;;;;11.84;83.72;101673.34;6108544;23;20005;-78
2023/05/21 04:20:48;;;;;;;8.02;6.10;;;;;;;11.83;83.64;101671.63;6110200;23;20024;-78
2023/05/21 04:23:14;;;;;;;11.13;6.43;;;;;;;11.81;83.83;101673.38;6132489;23;20009;-79
2023/05/21 04:25:39;;;;;;;7.60;6.22;;;;;;;11.82;84.17;101675.13;6108800;23;20376;-78
2023/05/21 04:28:05;;;;;;;8.40;6.45;;;;;;;11.82;83.88;101670.75;6134392;23;20013;-78
2023/05/21 04:30:34;;;;;;;8.85;6.43;;;;;;;11.83;84.19;101675.13;6109392;23;20016;-78
2023/05/21 04:33:01;;;;;;;8.38;6.75;;;;;;;11.82;84.19;101672.50;6111165;23;20020;-78
2023/05/21 04:35:26;;;;;;;8.80;6.43;;;;;;;11.86;84.27;101676.88;6185796;23;20033;-80
2023/05/21 04:37:53;;;;;;;7.88;6.15;;;;;;;11.89;83.64;101680.34;6132848;23;20439;-79
2023/05/21 04:40:23;;;;;;;9.63;6.78;;;;;;;11.92;83.48;101676.84;6109564;23;20017;-79
2023/05/21 04:42:49;;;;;;;8.77;6.80;;;;;;;11.92;84.16;101690.84;6111910;23;20009;-78
2023/05/21 04:45:16;;;;;;;8.48;6.18;;;;;;;11.95;83.69;101689.97;6134361;23;20009;-79
2023/05/21 04:47:42;;;;;;;8.52;6.60;;;;;;;11.97;83.24;101685.63;6110616;23;20056;-78
2023/05/21 04:50:09;;;;;;;10.02;6.75;;;;;;;11.90;83.80;101668.97;6158472;23;20486;-79
2023/05/21 04:52:35;;;;;;;7.78;6.45;;;;;;;12.06;83.67;101682.06;6110247;23;20020;-79
2023/05/21 04:55:01;;;;;;;8.23;6.15;;;;;;;12.12;83.20;101685.56;6107129;23;20019;-79
2023/05/21 04:57:28;;;;;;;8.60;6.70;;;;;;;12.13;83.41;101689.03;6132883;23;20013;-79
2023/05/21 04:59:53;;;;;;;8.38;6.25;;;;;;;12.15;83.29;101684.63;6134359;23;20347;-80
2023/05/21 05:02:19;;;;;;;9.95;7.20;;;;;;;12.16;83.92;101688.16;6134185;23;20013;-78
2023/05/21 05:04:45;;;;;;;11.63;6.60;;;;;;;12.20;83.20;101689.91;6109831;23;20016;-79
2023/05/21 05:07:11;;;;;;;9.88;6.82;;;;;;;12.26;83.44;101695.13;6134065;23;20035;-79
2023/05/21 05:09:36;;;;;;;10.77;7.60;;;;;;;12.26;84.08;101692.50;6157421;23;20009;-79
2023/05/21 05:12:02;;;;;;;9.13;7.18;;;;;;;12.30;83.50;101689.81;6134117;23;20017;-80
2023/05/21 05:14:27;;;;;;;8.55;7.07;;;;;;;12.34;84.01;101682.81;6134075;23;20013;-78
2023/05/21 05:16:53;;;;;;;9.73;7.00;;;;;;;12.36;84.36;101678.41;6109741;23;20099;-78
2023/05/21 05:19:19;;;;;;;9.73;7.30;;;;;;;12.42;83.68;101678.38;6109812;23;20016;-78
2023/05/21 05:21:45;;;;;;;8.43;6.97;;;;;;;12.46;83.64;101680.09;6109574;23;20439;-79
2023/05/21 05:24:10;;;;;;;10.57;7.95;;;;;;;12.48;83.57;101672.19;6133703;23;20013;-79
2023/05/21 05:26:35;;;;;;;8.63;7.72;;;;;;;12.54;83.48;101676.53;6109084;23;20009;-77
2023/05/21 05:29:01;;;;;;;10.70;8.02;;;;;;;12.59;82.82;101683.53;6134199;23;20012;-80
2023/05/21 05:31:26;;;;;;;11.57;7.28;;;;;;;12.64;82.75;101678.22;6109802;23;20020;-79
2023/05/21 05:33:52;;;;;;;10.38;6.90;;;;;;;12.72;82.25;101681.69;6158704;23;20013;-80
2023/05/21 05:36:17;;;;;;;8.85;7.50;;;;;;;12.81;82.29;101680.72;6133595;23;20079;-77
2023/05/21 05:38:42;;;;;;;9.32;7.60;;;;;;;12.83;82.32;101682.47;6158388;23;20340;-80
2023/05/21 05:41:08;;;;;;;8.45;7.18;;;;;;;12.88;82.37;101682.44;6133232;23;20012;-80
2023/05/21 05:43:33;;;;;;;9.63;7.60;;;;;;;12.95;81.62;101678.00;6109693;23;20320;-79
2023/05/21 05:45:59;;;;;;;10.57;7.47;;;;;;;13.02;82.18;101674.44;6134290;23;20013;-80
2023/05/21 05:48:24;;;;;;;10.13;7.60;;;;;;;13.08;81.79;101682.25;6133979;23;20017;-80
2023/05/21 05:50:53;;;;;;;8.85;7.75;;;;;;;13.16;81.11;101675.19;6133379;23;20048;-79
2023/05/21 05:53:19;;;;;;;12.48;7.95;;;;;;;13.24;80.96;101674.25;6133982;23;20017;-79
2023/05/21 05:55:44;;;;;;;9.98;7.50;;;;;;;13.32;80.85;101678.53;6104918;23;20056;-78
2023/05/21 05:58:10;;;;;;;9.45;7.63;;;;;;;13.41;81.14;101674.97;6128595;23;20009;-79
2023/05/21 06:00:35;;;;;;;10.00;7.80;;;;;;;13.51;80.16;101670.50;6104234;23;20009;-78
2023/05/21 06:03:01;;;;;;;10.18;7.88;;;;;;;13.56;80.23;101678.34;6078109;23;20013;-80
2023/05/21 06:05:26;;;;;;;8.82;7.57;;;;;;;13.68;80.55;101683.47;6104179;23;20093;-79
2023/05/21 06:07:51;;;;;;;8.48;7.43;;;;;;;13.74;79.26;101678.13;6079883;23;20084;-79
2023/05/21 06:10:19;;;;;;;9.90;7.78;;;;;;;13.83;78.47;101683.31;6103304;23;20013;-80
2023/05/21 06:12:44;;;;;;;8.90;8.00;;;;;;;13.94;79.05;101679.66;6081162;23;20414;-79
2023/05/21 06:15:10;;;;;;;9.68;7.63;;;;;;;14.02;78.63;101683.06;6128510;23;20002;-79
2023/05/21 06:17:36;;;;;;;9.40;7.75;;;;;;;14.13;77.99;101694.34;6128400;23;20005;-78
2023/05/21 06:20:01;;;;;;;11.45;7.90;;;;;;;14.17;76.90;101677.59;6103614;23;20025;-79
2023/05/21 06:22:27;;;;;;;9.77;7.78;;;;;;;14.36;78.74;101679.97;6103942;23;20009;-80
2023/05/21 06:24:52;;;;;;;9.90;8.02;;;;;;;14.45;76.64;101687.78;6103215;23;20013;-79
2023/05/21 06:27:18;;;;;;;10.30;7.65;;;;;;;14.64;78.28;101684.88;6080326;23;20016;-81
2023/05/21 06:29:43;;;;;;;10.25;7.50;;;;;;;14.71;76.46;101673.31;6103208;23;20009;-81
2023/05/21 06:32:08;;;;;;;9.38;7.80;;;;;;;14.78;75.55;101677.59;6127891;23;20080;-83
2023/05/21 06:34:34;;;;;;;9.48;8.05;;;;;;;14.93;76.17;101680.91;6103523;23;20022;-82
2023/05/21 06:36:59;;;;;;;9.85;8.13;;;;;;;14.95;75.69;101671.19;6103420;23;20009;-79
2023/05/21 06:39:26;;;;;;;10.63;8.18;;;;;;;15.17;75.91;101680.50;6079354;23;20009;-81
2023/05/21 06:41:51;;;;;;;9.43;7.50;;;;;;;15.28;76.22;101685.56;6079115;23;20262;-81
2023/05/21 06:44:17;;;;;;;9.18;7.80;;;;;;;15.33;74.86;101686.38;6128050;23;20013;-79
2023/05/21 06:46:42;;;;;;;9.57;7.50;;;;;;;15.40;73.42;101672.16;6103713;23;20041;-81
2023/05/21 06:49:08;;;;;;;10.52;7.57;;;;;;;15.57;74.33;101676.25;6103920;23;20144;-81
2023/05/21 06:51:33;;;;;;;9.75;7.85;;;;;;;15.73;73.76;101674.16;6103531;23;20020;-83
2023/05/21 06:53:59;;;;;;;9.18;7.97;;;;;;;15.94;74.26;101684.34;6082608;23;20448;-80
2023/05/21 06:56:25;;;;;;;9.43;7.82;;;;;;;16.09;71.79;101676.97;6103836;23;20075;-81
2023/05/21 06:58:50;;;;;;;9.43;7.60;;;;;;;16.06;71.45;101677.03;6079922;23;20013;-81
2023/05/21 07:01:16;;;;;;;10.60;7.60;;;;;;;16.18;70.09;101681.22;6079491;23;20379;-80
2023/05/21 07:03:41;;;;;;;13.32;8.27;;;;;;;16.19;69.86;101685.59;6079583;23;20017;-78
2023/05/21 07:06:07;;;;;;;10.07;7.82;;;;;;;16.25;70.95;101678.41;6102718;23;20344;-79
2023/05/21 07:08:32;;;;;;;11.30;8.35;;;;;;;16.26;69.56;101680.16;6102901;23;20013;-77
2023/05/21 07:10:58;;;;;;;9.48;7.95;;;;;;;16.48;72.59;101674.38;6103429;23;20006;-79
2023/05/21 07:13:23;;;;;;;9.85;7.95;;;;;;;16.63;69.89;101662.53;6102832;23;20092;-83
2023/05/21 07:15:49;;;;;;;16.23;8.60;;;;;;;16.83;69.85;101658.56;6077388;23;20128;-82
2023/05/21 07:18:15;;;;;;;10.55;7.75;;;;;;;16.90;69.06;101655.72;6127900;23;20418;-82
2023/05/21 07:20:41;;;;;;;11.77;8.63;;;;;;;16.93;69.11;101657.44;6078743;23;20484;-79
2023/05/21 07:23:06;;;;;;;9.50;8.50;;;;;;;17.22;69.69;101659.31;6078398;23;20096;-83
2023/05/21 07:25:31;;;;;;;13.40;8.68;;;;;;;17.23;68.01;101658.41;6102486;23;20064;-82
2023/05/21 07:27:57;;;;;;;9.82;8.80;;;;;;;17.28;68.82;101656.53;6079493;23;20035;-83
2023/05/21 07:30:22;;;;;;;12.30;8.50;;;;;;;17.38;68.04;101657.13;6103715;23;20080;-82
2023/05/21 07:32:49;;;;;;;9.88;8.23;;;;;;;17.40;67.85;101650.03;6103847;23;20417;-79
2023/05/21 07:35:14;;;;;;;8.90;7.78;;;;;;;17.49;66.02;101655.06;6102740;23;20325;-81
2023/05/21 07:37:40;;;;;;;12.35;8.95;;;;;;;17.37;65.70;101646.56;6079560;23;20020;-82
2023/05/21 07:40:07;;;;;;;10.27;8.45;;;;;;;17.65;68.25;101659.94;6102601;23;20010;-83
2023/05/21 07:42:33;;;;;;;10.25;8.43;;;;;;;17.71;67.16;101653.59;6103219;23;20012;-81
2023/05/21 07:44:58;;;;;;;10.82;9.07;;;;;;;17.74;66.79;101653.50;6103474;23;20009;-80
2023/05/21 07:47:23;;;;;;;11.77;9.15;;;;;;;17.73;65.08;101644.69;6103435;23;20082;-82
2023/05/21 07:49:49;;;;;;;11.93;8.57;;;;;;;17.81;65.06;101649.75;6103335;23;20020;-79
2023/05/21 07:52:15;;;;;;;11.98;8.68;;;;;;;17.99;66.55;101648.38;6127314;23;20009;-83
2023/05/21 07:54:40;;;;;;;11.20;8.40;;;;;;;18.18;66.65;101648.69;6090317;23;20044;-78
2023/05/21 07:57:05;;;;;;;12.07;9.35;;;;;;;18.20;66.99;101646.84;6132799;23;20439;-80
2023/05/21 07:59:32;;;;;;;11.68;8.90;;;;;;;18.08;64.77;101647.25;6132898;23;20079;-82
2023/05/21 08:01:57;;;;;;;9.27;8.35;;;;;;;18.21;64.62;101663.66;6132519;23;20037;-82
2023/05/21 08:04:23;;;;;;;12.65;9.07;;;;;;;18.20;64.07;101654.81;6107905;23;20426;-83
2023/05/21 08:06:48;;;;;;;10.85;8.63;;;;;;;18.26;64.95;101656.41;6107700;23;20036;-81
2023/05/21 08:09:14;;;;;;;12.30;9.10;;;;;;;18.27;64.15;101653.69;6107736;23;20017;-81
2023/05/21 08:11:39;;;;;;;11.10;8.55;;;;;;;18.44;63.60;101647.00;6158011;23;20339;-80
2023/05/21 08:14:05;;;;;;;11.50;9.15;;;;;;;18.65;64.24;101654.28;6132934;23;20017;-82
2023/05/21 08:16:30;;;;;;;11.27;9.13;;;;;;;18.74;65.24;101638.97;6157345;23;20439;-78
2023/05/21 08:18:58;;;;;;;10.25;8.23;;;;;;;18.89;63.46;101641.13;6108771;23;20028;-79
2023/05/21 08:21:24;;;;;;;14.63;10.45;;;;;;;18.92;65.09;101638.38;6107487;23;20092;-78
2023/05/21 08:23:51;;;;;;;10.23;8.75;;;;;;;18.92;64.86;101645.47;6107295;23;20431;-79
2023/05/21 08:26:16;;;;;;;10.65;9.10;;;;;;;19.03;64.55;101649.47;6132051;23;20431;-82
2023/05/21 08:28:42;;;;;;;10.55;8.85;;;;;;;19.11;63.73;101648.38;6107702;23;20009;-80
2023/05/21 08:31:07;;;;;;;10.50;9.30;;;;;;;19.12;61.96;101647.44;6157249;23;20009;-81
2023/05/21 08:33:37;;;;;;;11.02;9.38;;;;;;;19.23;63.02;101645.28;6132358;23;20020;-82
2023/05/21 08:36:06;;;;;;;13.52;9.35;;;;;;;19.31;62.97;101632.59;6131822;23;20017;-79
2023/05/21 08:38:31;;;;;;;11.25;9.40;;;;;;;19.31;63.92;101635.25;6132425;23;20052;-77
2023/05/21 08:40:58;;;;;;;11.05;9.50;;;;;;;19.24;62.84;101631.09;6156371;23;20067;-82
2023/05/21 08:43:26;;;;;;;11.68;9.60;;;;;;;19.24;63.37;101624.88;6157412;23;20009;-81
2023/05/21 08:45:57;;;;;;;11.88;9.95;;;;;;;19.52;62.73;101630.06;6159114;23;20005;-79
2023/05/21 08:48:23;;;;;;;10.85;9.43;;;;;;;19.51;64.34;101629.22;6134165;23;20013;-78
2023/05/21 08:50:53;;;;;;;13.57;9.23;;;;;;;19.71;63.14;101631.13;6158496;23;20087;-81
2023/05/21 08:53:20;;;;;;;11.32;9.38;;;;;;;19.94;61.56;101631.19;6158960;23;20009;-82
2023/05/21 08:55:45;;;;;;;11.45;9.52;;;;;;;20.01;60.34;101627.38;6133205;23;20037;-81
2023/05/21 08:58:12;;;;;;;11.10;8.90;;;;;;;19.90;61.52;101630.47;6134302;23;20009;-80
2023/05/21 09:00:38;;;;;;;11.50;9.20;;;;;;;19.83;60.84;101618.34;6133556;23;20013;-81
2023/05/21 09:03:09;;;;;;;14.32;9.93;;;;;;;19.78;59.89;101628.22;6155489;23;20101;-81
2023/05/21 09:05:36;;;;;;;14.05;9.85;;;;;;;19.80;61.05;101623.78;6134085;23;20104;-81
2023/05/21 09:08:07;;;;;;;12.57;9.77;;;;;;;19.83;61.38;101621.84;6158206;23;20085;-79
2023/05/21 09:10:37;;;;;;;12.85;9.50;;;;;;;19.83;60.83;101618.34;6156625;23;20029;-82
2023/05/21 09:13:03;;;;;;;12.27;10.15;;;;;;;19.90;60.36;101618.03;6158831;23;20005;-80
2023/05/21 09:15:28;;;;;;;12.93;9.45;;;;;;;20.14;60.44;101617.13;6134101;23;20013;-80
2023/05/21 09:17:54;;;;;;;12.55;9.70;;;;;;;20.13;60.97;101610.94;6109451;23;20016;-79
2023/05/21 09:20:25;;;;;;;12.13;10.27;;;;;;;20.19;62.96;101608.03;6109427;23;20019;-79
2023/05/21 09:22:50;;;;;;;13.57;10.13;;;;;;;20.29;61.37;101610.34;6157766;23;20099;-80
2023/05/21 09:25:22;;;;;;;12.18;10.57;;;;;;;20.36;58.59;101612.69;6132573;23;20013;-82
2023/05/21 09:27:47;;;;;;;13.57;10.65;;;;;;;20.45;62.01;101611.44;6184749;23;20063;-79
2023/05/21 09:30:16;;;;;;;13.95;10.82;;;;;;;20.55;59.91;101618.09;6158073;23;20013;-81
2023/05/21 09:32:42;;;;;;;13.63;10.80;;;;;;;20.63;60.31;101608.94;6157851;23;20079;-78
2023/05/21 09:35:11;;;;;;;11.45;10.23;;;;;;;20.62;61.16;101607.22;6133028;23;20017;-78
2023/05/21 09:37:42;;;;;;;13.32;10.02;;;;;;;20.58;61.29;101617.13;6157719;23;20454;-78
2023/05/21 09:40:14;;;;;;;13.48;10.38;;;;;;;20.59;60.91;101626.84;6132899;23;20043;-80
2023/05/21 09:42:47;;;;;;;13.05;10.40;;;;;;;20.43;60.11;101619.50;6158362;23;20120;-80
2023/05/21 09:45:26;;;;;;;12.95;10.82;;;;;;;20.43;60.63;101608.84;6157300;23;20001;-77
2023/05/21 09:47:52;;;;;;;12.65;9.73;;;;;;;20.51;60.25;101619.16;6184340;23;20001;-82
2023/05/21 09:50:20;;;;;;;12.88;10.85;;;;;;;20.54;60.87;101610.19;6109366;23;20009;-77
2023/05/21 09:52:47;;;;;;;14.63;11.55;;;;;;;20.54;58.93;101604.88;6156002;23;20391;-78
2023/05/21 09:55:13;;;;;;;13.75;11.77;;;;;;;20.62;60.58;101597.44;6131686;23;20023;-79
2023/05/21 09:57:43;;;;;;;14.70;12.60;;;;;;;20.73;58.42;101597.88;6109252;23;20005;-76
2023/05/21 10:00:23;;;;;;;14.85;11.75;;;;;;;20.55;60.52;101587.97;6158661;23;20092;-79
2023/05/21 10:02:54;;;;;;;12.55;10.88;;;;;;;20.81;60.34;101597.53;6133549;23;20447;-81
2023/05/21 10:05:19;;;;;;;;;;;;;;;20.98;59.76;101594.16;6158453;23;20096;-77
2023/05/21 10:07:53;;;;;;;12.95;11.20;;;;;;;21.15;60.63;101593.41;6158113;23;19939;-79
2023/05/21 10:10:20;;;;;;;17.42;11.88;;;;;;;21.18;59.59;101585.28;6133885;23;20044;-74
2023/05/21 10:12:50;;;;;;;12.63;11.32;;;;;;;21.26;57.96;101583.16;6102067;23;20009;-75
2023/05/21 10:15:21;;;;;;;14.82;12.68;;;;;;;21.22;57.17;101586.00;6104766;23;20025;-81
2023/05/21 10:17:47;;;;;;;;;;;;;;;21.38;57.30;101584.38;6128817;23;20470;-80
2023/05/21 10:20:13;;;;;;;16.45;13.75;;;;;;;21.21;57.03;101589.63;6104569;23;19908;-79
2023/05/21 10:22:39;;;;;;;17.77;13.65;;;;;;;21.07;56.28;101583.06;6104618;23;20033;-79
2023/05/21 10:25:08;;;;;;;15.70;14.05;;;;;;;21.11;58.46;101587.34;6103860;23;20029;-78
2023/05/21 10:27:35;;;;;;;18.52;15.15;;;;;;;21.14;58.02;101577.50;6104929;23;20014;-80
2023/05/21 10:30:03;;;;;;;16.95;14.88;;;;;;;21.25;57.64;101580.56;6128824;23;20001;-79
2023/05/21 10:32:31;;;;;;;15.45;13.50;;;;;;;21.45;57.96;101582.31;6104837;23;20010;-80
2023/05/21 10:34:57;;;;;;;17.80;15.63;;;;;;;21.40;55.83;101581.66;6104446;23;20005;-78
2023/05/21 10:37:25;;;;;;;17.33;14.63;;;;;;;21.03;56.85;101589.50;6128680;23;20016;-79
2023/05/21 10:39:51;;;;;;;16.48;14.57;;;;;;;21.07;58.02;101583.06;6104599;23;20343;-80
2023/05/21 10:42:22;;;;;;;16.73;14.75;;;;;;;20.99;57.16;101587.91;6104617;23;20017;-78
2023/05/21 10:44:57;;;;;;;18.90;14.20;;;;;;;21.03;57.88;101573.50;6128929;23;20016;-77
2023/05/21 10:47:28;;;;;;;15.65;14.05;;;;;;;21.14;58.06;101573.03;6128804;23;20010;-78
2023/05/21 10:50:13;;;;;;;17.15;15.25;;;;;;;21.24;57.53;101563.69;6127681;23;20020;-78
2023/05/21 10:52:59;;;;;;;16.60;14.77;;;;;;;21.36;57.98;101564.91;6127980;23;20013;-77
2023/05/21 10:55:41;;;;;;;22.33;15.55;;;;;;;21.42;57.78;101556.66;6127162;23;20324;-77
2023/05/21 10:58:27;;;;;;;19.13;14.88;;;;;;;21.51;57.18;101560.72;6128472;23;20023;-76
2023/05/21 11:00:54;;;;;;;17.50;15.55;;;;;;;21.51;57.40;101549.19;6153021;23;20025;-78
2023/05/21 11:03:21;;;;;;;18.55;15.43;;;;;;;21.32;56.06;101555.34;6128439;23;20146;-76
2023/05/21 11:06:25;;;;;;;17.40;15.30;;;;;;;21.42;58.69;101551.31;6102076;23;20005;-76
2023/05/21 11:08:52;;;;;;;18.08;14.95;;;;;;;21.40;56.87;101542.50;6096589;23;20006;-79
2023/05/21 11:11:50;;;;;;;17.25;15.13;;;;;;;21.48;57.73;101543.94;6118869;23;20025;-79
2023/05/21 11:14:35;;;;;;;20.30;15.85;;;;;;;21.59;57.43;101541.69;6181762;23;20035;-77
2023/05/21 11:17:43;;;;;;;20.92;16.23;;;;;;;21.62;58.14;101546.88;6157362;23;20079;-79
2023/05/21 11:20:13;;;;;;;19.63;14.93;;;;;;;21.38;58.21;101539.06;6130757;23;20103;-76
2023/05/21 11:22:39;;;;;;;17.17;15.32;;;;;;;21.30;59.08;101535.88;6107654;23;20016;-77